KCLW/CLW METAR and TAF weather

Enter ICAO airport designator
Station Type Date Time Source
KCLW METAR 2018/12/12 16:55 UTC NOAA

KCLW 121655Z AUTO 00000KT 10SM CLR 14/04 A3030 RMK AO2


Station Type Date Time Source
KCLW Decoded METAR 2018/12/12 16:55 UTC NOAA

Station name not available
Dec 12, 2018 - 11:55 AM EST / 2018.12.12 1655 UTC
Wind: Calm:0
Visibility: 10 mile(s):0
Sky conditions: clear
Temperature: 57 F (14 C)
Dew Point: 39 F (4 C)
Relative Humidity: 50%
Pressure (altimeter): 30.3 in. Hg (1026 hPa)
ob: KCLW 121655Z AUTO 00000KT 10SM CLR 14/04 A3030 RMK AO2
cycle: 17

Station Type Date Time Source
KCLW TAF UTC NOAA

Error!


Example: see airport list